Hauptseite
METAR-TAF:

METAR-TAF

Flughäfen :

Fliegerhorst Nordholz

Nordholz, Deutschland

Breite: 53-46N, Länge: 008-40E, Höhe: 23 m

Beobachtung

Neuester Wetterbericht von vor 32 Minuten, um 05:20 UTC
Wind 10 kt aus Ost
Temperatur 15°C
Luftfeuchtigkeit 59%
Luftdruck 1024 hPa
Sichtweite 10 km oder mehr
Leicht bewölkt in der Höhe von 30000 ft

METAR: ETMN 240520Z 09010KT 9999 FEW300 15/07 Q1024 BLU+BLU+

Zeit: 07:52 (05:52 UTC)

Prognose

Neuester Wetterbericht von vor 1 Stunde und 30 Minuten, um 04:22 UTC
Gültige Prognose vom 24 um 05 UTC bis 24 um 14 UTC
Wind 12 kt aus Ost/Nordost, Böen bis zu 22 kt
Sichtweite 10 km oder mehr
Leicht bewölkt in der Höhe von 5000 ft

TAF: ETMN 240422Z 2405/2414 07012G22KT 9999 NSW FEW050

Wetterbeobachtungen und Prognosen von mehr als 4000 Flughäfen (METAR und TAF Bericht).

Die verfügbaren Stationen werden durch gelbe und rote Markierungen auf der Karte dargestellt.

Führen Sie die Maus auf sie, um den Namen der Station zu sehen.

Darauf klicken, um die Beobachtung von Wetterbeobachtungen und Prognosen zu sehen.

Um die Karte zu ändern : klicken Sie auf den grünen Tasten mit einem schwarzen Kreuz Zum Vergrößern, auf den grünen Button mit einem Gedankenstrich zu verkleinern, oder auf die grünen Pfeile für benachbarte Karten.


METAR-TAF: